createdAt,value
2023-02-16T00:01:02.398Z,55.08
2023-02-16T00:02:36.127Z,47.45
2023-02-16T00:04:14.791Z,49.92
2023-02-16T00:05:47.591Z,52.03
2023-02-16T00:07:20.985Z,53.75
2023-02-16T00:08:55.533Z,54.35
2023-02-16T00:10:30.876Z,50.75
2023-02-16T00:12:21.829Z,51.92
2023-02-16T00:13:56.587Z,49.13
2023-02-16T00:15:30.039Z,52.72
2023-02-16T00:17:03.686Z,48.60
2023-02-16T00:18:36.065Z,51.13
2023-02-16T00:20:12.610Z,51.13
2023-02-16T00:21:46.044Z,48.25
2023-02-16T00:23:19.408Z,46.75
2023-02-16T00:24:52.796Z,51.10
2023-02-16T00:26:27.150Z,50.05
2023-02-16T00:28:00.617Z,49.05
2023-02-16T00:29:36.162Z,54.08
2023-02-16T00:31:10.874Z,48.45
2023-02-16T00:32:44.383Z,51.63
2023-02-16T00:34:26.655Z,47.03
2023-02-16T00:36:00.266Z,47.53
2023-02-16T00:37:33.724Z,49.95
2023-02-16T00:39:07.162Z,45.92
2023-02-16T00:40:40.971Z,51.92
2023-02-16T00:42:18.216Z,48.08
2023-02-16T00:43:51.632Z,46.42
2023-02-16T00:45:26.466Z,47.63
2023-02-16T00:47:00.898Z,47.92
2023-02-16T00:48:35.878Z,45.75
2023-02-16T00:50:16.122Z,49.17
2023-02-16T00:51:52.216Z,49.50
2023-02-16T00:53:25.759Z,50.38
2023-02-16T00:54:59.506Z,49.50
2023-02-16T00:56:33.561Z,46.38
2023-02-16T00:58:08.944Z,49.92
2023-02-16T00:59:42.381Z,46.50
2023-02-16T01:01:18.359Z,49.55
2023-02-16T01:02:55.514Z,49.05
2023-02-16T01:04:27.954Z,48.13
2023-02-16T01:06:15.804Z,46.45
2023-02-16T01:08:07.115Z,48.97
2023-02-16T01:09:57.993Z,43.17
2023-02-16T01:11:31.682Z,42.75
2023-02-16T01:13:05.120Z,47.47
2023-02-16T01:14:40.688Z,46.75
2023-02-16T01:16:15.547Z,48.97
2023-02-16T01:17:50.346Z,47.10
2023-02-16T01:19:23.748Z,45.97
2023-02-16T01:20:57.150Z,47.78
2023-02-16T01:22:33.379Z,49.50
2023-02-16T01:24:06.985Z,47.78
2023-02-16T01:25:41.411Z,50.70
2023-02-16T01:27:15.256Z,46.13
2023-02-16T01:28:51.311Z,48.63
2023-02-16T01:30:25.971Z,46.63
2023-02-16T01:31:59.509Z,46.42
2023-02-16T01:33:34.651Z,42.40
2023-02-16T01:35:08.589Z,44.42
2023-02-16T01:36:43.532Z,47.45
2023-02-16T01:38:18.784Z,43.83
2023-02-16T01:39:53.649Z,45.28
2023-02-16T01:41:31.464Z,46.55
2023-02-16T01:43:08.637Z,40.13
2023-02-16T01:44:44.800Z,44.15
2023-02-16T01:46:21.663Z,45.75
2023-02-16T01:47:56.752Z,44.55
2023-02-16T01:49:31.531Z,42.97
2023-02-16T01:51:07.221Z,47.83
2023-02-16T01:52:43.989Z,49.72
2023-02-16T01:54:23.174Z,46.22
2023-02-16T01:55:57.848Z,45.83
2023-02-16T01:57:35.971Z,46.75
2023-02-16T01:59:13.716Z,48.00
2023-02-16T02:01:06.062Z,46.85
2023-02-16T02:02:41.285Z,47.17
2023-02-16T02:04:40.128Z,40.80
2023-02-16T02:06:15.555Z,45.40
2023-02-16T02:07:51.787Z,43.75
2023-02-16T02:09:27.375Z,47.50
2023-02-16T02:11:06.250Z,39.50
2023-02-16T02:12:45.344Z,46.28
2023-02-16T02:14:19.855Z,43.30
2023-02-16T02:15:53.678Z,50.28
2023-02-16T02:17:27.620Z,45.17
2023-02-16T02:19:01.061Z,45.42
2023-02-16T02:21:00.679Z,44.22
2023-02-16T02:23:06.259Z,48.40
2023-02-16T02:24:57.123Z,45.17
2023-02-16T02:26:50.778Z,42.00
2023-02-16T02:28:27.026Z,47.80
2023-02-16T02:30:09.507Z,47.25
2023-02-16T02:31:48.745Z,46.22
2023-02-16T02:33:34.984Z,47.83
2023-02-16T02:35:14.030Z,44.58
2023-02-16T02:36:50.676Z,45.67
2023-02-16T02:38:27.020Z,44.35
2023-02-16T02:40:05.418Z,47.08
2023-02-16T02:41:58.212Z,47.42
2023-02-16T02:43:37.617Z,45.50
2023-02-16T02:45:13.516Z,44.35
2023-02-16T02:46:47.764Z,43.03
2023-02-16T02:48:21.158Z,47.60
2023-02-16T02:49:54.271Z,47.95
2023-02-16T02:51:30.851Z,43.00
2023-02-16T02:53:09.745Z,47.40
2023-02-16T02:55:01.984Z,45.85
2023-02-16T02:56:52.919Z,48.03
2023-02-16T02:58:44.908Z,48.33
2023-02-16T03:00:39.598Z,44.53
2023-02-16T03:02:14.199Z,42.15
2023-02-16T03:03:49.149Z,46.92
2023-02-16T03:05:24.928Z,45.15
2023-02-16T03:06:58.097Z,48.30
2023-02-16T03:08:33.065Z,40.80
2023-02-16T03:10:20.606Z,43.42
2023-02-16T03:12:13.104Z,41.20
2023-02-16T03:13:48.540Z,42.38
2023-02-16T03:15:24.564Z,40.78
2023-02-16T03:17:16.919Z,42.40
2023-02-16T03:19:07.648Z,42.35
2023-02-16T03:20:59.143Z,41.83
2023-02-16T03:22:51.161Z,38.40
2023-02-16T03:24:45.552Z,42.22
2023-02-16T03:26:38.084Z,37.20
2023-02-16T03:28:30.095Z,38.53
2023-02-16T03:30:04.874Z,38.78
2023-02-16T03:31:39.249Z,39.58
2023-02-16T03:33:12.745Z,42.28
2023-02-16T03:34:46.321Z,43.15
2023-02-16T03:36:19.925Z,43.75
2023-02-16T03:37:53.536Z,40.25
2023-02-16T03:39:27.407Z,41.78
2023-02-16T03:40:59.823Z,38.85
2023-02-16T03:42:33.216Z,38.35
2023-02-16T03:44:05.831Z,39.85
2023-02-16T03:45:44.611Z,41.10
2023-02-16T03:47:19.394Z,38.28
2023-02-16T03:48:52.821Z,39.95
2023-02-16T03:50:27.105Z,39.15
2023-02-16T03:52:00.482Z,40.15
2023-02-16T03:53:33.871Z,39.88
2023-02-16T03:55:07.677Z,38.03
2023-02-16T03:56:41.045Z,36.88
2023-02-16T03:58:15.677Z,35.30
2023-02-16T03:59:50.891Z,39.15
2023-02-16T04:01:24.246Z,42.00
2023-02-16T04:02:58.153Z,36.72
2023-02-16T04:04:31.660Z,42.28
2023-02-16T04:06:05.164Z,44.45
2023-02-16T04:07:38.538Z,41.30
2023-02-16T04:09:12.042Z,40.85
2023-02-16T04:10:44.585Z,44.65
2023-02-16T04:12:35.509Z,45.25
2023-02-16T04:14:08.879Z,46.65
2023-02-16T04:15:42.367Z,44.72
2023-02-16T04:17:14.846Z,47.75
2023-02-16T04:18:49.660Z,48.47
2023-02-16T04:20:24.003Z,45.75
2023-02-16T04:21:56.516Z,50.58
2023-02-16T04:23:29.897Z,43.00
2023-02-16T04:25:03.288Z,44.47
2023-02-16T04:26:36.644Z,46.13
2023-02-16T04:28:10.012Z,46.22
2023-02-16T04:29:43.419Z,44.33
2023-02-16T04:31:16.838Z,43.22
2023-02-16T04:32:50.339Z,44.47
2023-02-16T04:34:25.059Z,45.90
2023-02-16T04:35:58.443Z,43.55
2023-02-16T04:37:31.992Z,48.65
2023-02-16T04:39:05.466Z,44.42
2023-02-16T04:40:38.844Z,44.33
2023-02-16T04:42:11.222Z,46.40
2023-02-16T04:43:44.585Z,43.00
2023-02-16T04:45:18.048Z,49.15
2023-02-16T04:46:51.476Z,43.90
2023-02-16T04:48:24.854Z,42.72
2023-02-16T04:49:58.610Z,44.05
2023-02-16T04:51:32.088Z,45.53
2023-02-16T04:53:05.523Z,43.22
2023-02-16T04:54:38.889Z,42.33
2023-02-16T04:56:12.618Z,44.67
2023-02-16T04:57:46.570Z,49.40
2023-02-16T04:59:19.953Z,41.85
2023-02-16T05:00:53.351Z,46.42
2023-02-16T05:02:25.742Z,41.20
2023-02-16T05:03:59.096Z,40.88
2023-02-16T05:05:35.139Z,41.00
2023-02-16T05:07:08.514Z,39.70
2023-02-16T05:08:41.908Z,39.30
2023-02-16T05:10:15.248Z,40.65
2023-02-16T05:12:06.257Z,37.97
2023-02-16T05:13:57.349Z,35.88
2023-02-16T05:15:30.756Z,38.97
2023-02-16T05:17:03.190Z,40.13
2023-02-16T05:18:36.746Z,37.92
2023-02-16T05:20:10.449Z,40.10
2023-02-16T05:21:44.205Z,38.47
2023-02-16T05:23:17.569Z,39.70
2023-02-16T05:24:51.411Z,43.42
2023-02-16T05:26:23.940Z,44.20
2023-02-16T05:27:57.526Z,40.97
2023-02-16T05:29:30.915Z,41.50
2023-02-16T05:31:04.692Z,41.30
2023-02-16T05:32:38.286Z,40.28
2023-02-16T05:34:11.782Z,40.83
2023-02-16T05:35:45.156Z,46.00
2023-02-16T05:37:20.520Z,43.75
2023-02-16T05:38:54.049Z,43.95
2023-02-16T05:40:27.531Z,39.67
2023-02-16T05:42:01.015Z,42.92
2023-02-16T05:43:34.418Z,45.75
2023-02-16T05:45:08.096Z,40.05
2023-02-16T05:46:40.891Z,44.95
2023-02-16T05:48:14.363Z,42.03
2023-02-16T05:49:47.863Z,40.95
2023-02-16T05:51:20.251Z,40.15
2023-02-16T05:52:55.057Z,46.60
2023-02-16T05:54:28.103Z,43.13
2023-02-16T05:56:01.581Z,42.65
2023-02-16T05:57:35.717Z,45.85
2023-02-16T05:59:10.094Z,45.80
2023-02-16T06:00:43.532Z,43.83
2023-02-16T06:02:16.921Z,47.88
2023-02-16T06:03:50.330Z,45.25
2023-02-16T06:05:23.721Z,43.13
2023-02-16T06:06:57.210Z,44.10
2023-02-16T06:08:32.345Z,45.35
2023-02-16T06:10:06.270Z,49.45
2023-02-16T06:11:38.812Z,42.05
2023-02-16T06:13:12.190Z,49.08
2023-02-16T06:14:45.589Z,44.03
2023-02-16T06:16:19.089Z,41.63
2023-02-16T06:17:52.506Z,43.67
2023-02-16T06:19:25.923Z,45.58
2023-02-16T06:20:59.345Z,46.30
2023-02-16T06:22:32.780Z,41.70
2023-02-16T06:24:08.224Z,42.58
2023-02-16T06:25:43.593Z,46.75
2023-02-16T06:27:17.006Z,41.78
2023-02-16T06:28:49.655Z,47.72
2023-02-16T06:30:23.379Z,42.60
2023-02-16T06:31:56.874Z,48.88
2023-02-16T06:33:30.322Z,48.92
2023-02-16T06:35:04.306Z,47.55
2023-02-16T06:36:37.744Z,44.67
2023-02-16T06:38:11.141Z,46.20
2023-02-16T06:39:47.386Z,50.78
2023-02-16T06:41:32.274Z,46.55
2023-02-16T06:43:05.742Z,45.65
2023-02-16T06:44:44.221Z,43.17
2023-02-16T06:46:16.736Z,39.42
2023-02-16T06:47:50.140Z,44.85
2023-02-16T06:49:26.057Z,43.08
2023-02-16T06:51:01.125Z,39.13
2023-02-16T06:52:34.686Z,37.95
2023-02-16T06:54:08.089Z,38.03
2023-02-16T06:55:41.845Z,39.80
2023-02-16T06:57:15.474Z,40.20
2023-02-16T06:58:48.876Z,37.10
2023-02-16T07:00:22.608Z,37.63
2023-02-16T07:01:55.979Z,38.97
2023-02-16T07:03:29.441Z,33.65
2023-02-16T07:05:03.327Z,35.38
2023-02-16T07:06:36.709Z,33.67
2023-02-16T07:08:10.086Z,35.47
2023-02-16T07:09:43.560Z,35.75
2023-02-16T07:11:19.264Z,35.55
2023-02-16T07:12:52.717Z,31.40
2023-02-16T07:14:26.093Z,33.03
2023-02-16T07:15:59.523Z,33.05
2023-02-16T07:17:32.962Z,34.72
2023-02-16T07:19:06.979Z,37.72
2023-02-16T07:20:40.452Z,41.53
2023-02-16T07:22:13.856Z,40.97
2023-02-16T07:23:47.390Z,36.85
2023-02-16T07:25:20.786Z,37.08
2023-02-16T07:26:56.638Z,37.38
2023-02-16T07:28:30.307Z,37.08
2023-02-16T07:30:03.986Z,38.45
2023-02-16T07:31:37.661Z,35.35
2023-02-16T07:33:11.253Z,34.78
2023-02-16T07:34:45.933Z,32.97
2023-02-16T07:36:19.412Z,36.60
2023-02-16T07:37:52.791Z,33.25
2023-02-16T07:39:26.299Z,37.60
2023-02-16T07:40:59.819Z,37.83
2023-02-16T07:42:35.314Z,32.83
2023-02-16T07:44:10.248Z,35.70
2023-02-16T07:45:43.825Z,34.05
2023-02-16T07:47:17.952Z,35.55
2023-02-16T07:48:51.582Z,33.20
2023-02-16T07:50:24.963Z,36.28
2023-02-16T07:51:58.340Z,33.90
2023-02-16T07:53:31.949Z,34.92
2023-02-16T07:55:05.652Z,38.50
2023-02-16T07:56:39.075Z,35.58
2023-02-16T07:58:27.079Z,34.20
2023-02-16T08:00:00.557Z,35.08
2023-02-16T08:01:35.239Z,33.35
2023-02-16T08:03:08.774Z,35.13
2023-02-16T08:04:42.194Z,35.50
2023-02-16T08:06:15.711Z,35.83
2023-02-16T08:07:49.180Z,37.20
2023-02-16T08:09:22.680Z,36.73
2023-02-16T08:10:56.129Z,36.05
2023-02-16T08:12:29.520Z,34.93
2023-02-16T08:14:04.273Z,35.73
2023-02-16T08:15:37.650Z,35.60
2023-02-16T08:17:11.324Z,34.20
2023-02-16T08:18:45.198Z,34.47
2023-02-16T08:20:18.644Z,33.70
2023-02-16T08:21:52.047Z,36.40
2023-02-16T08:23:24.828Z,30.53
2023-02-16T08:24:59.476Z,32.43
2023-02-16T08:26:36.783Z,33.07
2023-02-16T08:28:10.334Z,33.87
2023-02-16T08:29:45.134Z,33.47
2023-02-16T08:31:19.969Z,30.00
2023-02-16T08:32:53.921Z,35.70
2023-02-16T08:34:27.431Z,32.23
2023-02-16T08:36:00.862Z,32.67
2023-02-16T08:37:34.505Z,34.10
2023-02-16T08:39:08.746Z,30.87
2023-02-16T08:40:42.194Z,33.57
2023-02-16T08:42:15.625Z,31.80
2023-02-16T08:43:49.182Z,34.67
2023-02-16T08:45:23.951Z,33.90
2023-02-16T08:47:00.759Z,31.23
2023-02-16T08:48:35.604Z,35.07
2023-02-16T08:50:09.182Z,29.20
2023-02-16T08:51:43.622Z,31.87
2023-02-16T08:53:17.028Z,31.40
2023-02-16T08:54:50.548Z,28.57
2023-02-16T08:56:23.900Z,30.53
2023-02-16T08:57:57.334Z,27.77
2023-02-16T08:59:30.717Z,30.97
2023-02-16T09:01:08.139Z,29.03
2023-02-16T09:02:41.965Z,34.57
2023-02-16T09:04:16.023Z,33.30
2023-02-16T09:05:50.006Z,33.50
2023-02-16T09:07:23.815Z,31.20
2023-02-16T09:08:59.169Z,32.57
2023-02-16T09:10:32.943Z,31.90
2023-02-16T09:12:07.078Z,31.73
2023-02-16T09:13:41.112Z,33.47
2023-02-16T09:15:15.958Z,33.47
2023-02-16T09:16:51.057Z,34.63
2023-02-16T09:18:24.424Z,36.87
2023-02-16T09:19:58.006Z,31.57
2023-02-16T09:21:33.342Z,32.80
2023-02-16T09:23:06.869Z,31.60
2023-02-16T09:24:40.637Z,34.00
2023-02-16T09:26:15.172Z,34.83
2023-02-16T09:27:48.668Z,34.20
2023-02-16T09:29:23.040Z,31.30
2023-02-16T09:30:56.863Z,37.03
2023-02-16T09:32:31.945Z,34.13
2023-02-16T09:34:06.351Z,34.63
2023-02-16T09:35:40.372Z,31.97
2023-02-16T09:37:14.612Z,32.77
2023-02-16T09:38:49.032Z,32.50
2023-02-16T09:40:22.560Z,33.70
2023-02-16T09:42:00.701Z,33.63
2023-02-16T09:43:41.889Z,33.90
2023-02-16T09:45:16.651Z,32.10
2023-02-16T09:46:50.565Z,32.33
2023-02-16T09:48:30.466Z,33.77
2023-02-16T09:50:06.429Z,33.93
2023-02-16T09:51:41.911Z,35.03
2023-02-16T09:53:21.602Z,35.83
2023-02-16T09:54:55.888Z,36.47
2023-02-16T09:56:33.019Z,35.70
2023-02-16T09:58:09.079Z,38.93
2023-02-16T09:59:47.308Z,39.37
2023-02-16T10:01:24.657Z,38.93
2023-02-16T10:03:03.542Z,37.20
2023-02-16T10:04:46.267Z,34.83
2023-02-16T10:06:29.015Z,31.20
2023-02-16T10:08:04.524Z,33.53
2023-02-16T10:09:38.091Z,33.47
2023-02-16T10:11:28.250Z,37.37
2023-02-16T10:13:05.230Z,32.07
2023-02-16T10:14:42.243Z,35.50
2023-02-16T10:16:18.346Z,34.73
2023-02-16T10:17:56.129Z,33.20
2023-02-16T10:19:31.315Z,36.80
2023-02-16T10:21:08.349Z,32.57
2023-02-16T10:22:43.462Z,34.23
2023-02-16T10:24:16.955Z,34.33
2023-02-16T10:25:54.728Z,34.20
2023-02-16T10:27:30.252Z,32.03
2023-02-16T10:29:08.025Z,33.93
2023-02-16T10:30:44.574Z,32.77
2023-02-16T10:32:24.983Z,34.17
2023-02-16T10:34:08.082Z,33.87
2023-02-16T10:35:45.463Z,34.63
2023-02-16T10:37:27.399Z,33.37
2023-02-16T10:39:04.320Z,31.63
2023-02-16T10:40:41.183Z,31.43
2023-02-16T10:42:19.422Z,32.33
2023-02-16T10:43:55.094Z,34.73
2023-02-16T10:45:31.914Z,32.73
2023-02-16T10:47:06.584Z,33.17
2023-02-16T10:48:39.936Z,33.20
2023-02-16T10:50:21.101Z,38.93
2023-02-16T10:51:55.448Z,31.70
2023-02-16T10:53:41.317Z,34.00
2023-02-16T10:55:14.904Z,34.57
2023-02-16T10:56:52.492Z,35.37
2023-02-16T10:58:27.767Z,31.57
2023-02-16T11:00:02.745Z,32.30
2023-02-16T11:01:38.266Z,35.00
2023-02-16T11:03:13.778Z,35.07
2023-02-16T11:04:48.380Z,32.43
2023-02-16T11:06:22.935Z,32.93
2023-02-16T11:07:57.730Z,34.07
2023-02-16T11:09:32.791Z,34.73
2023-02-16T11:11:11.214Z,33.03
2023-02-16T11:12:44.659Z,34.20
2023-02-16T11:14:22.698Z,35.37
2023-02-16T11:15:56.775Z,31.77
2023-02-16T11:17:30.201Z,32.10
2023-02-16T11:19:05.903Z,33.00
2023-02-16T11:20:53.162Z,33.37
2023-02-16T11:22:29.007Z,35.33
2023-02-16T11:24:02.852Z,33.53
2023-02-16T11:25:37.991Z,34.00
2023-02-16T11:27:16.867Z,34.17
2023-02-16T11:28:51.059Z,33.60
2023-02-16T11:30:29.912Z,31.80
2023-02-16T11:32:09.593Z,33.13
2023-02-16T11:33:44.448Z,33.10
2023-02-16T11:35:18.053Z,30.50
2023-02-16T11:36:51.766Z,33.10
2023-02-16T11:38:29.814Z,29.30
2023-02-16T11:40:05.263Z,30.33
2023-02-16T11:41:40.038Z,33.03
2023-02-16T11:43:19.081Z,32.90
2023-02-16T11:44:53.752Z,35.17
2023-02-16T11:46:27.496Z,30.33
2023-02-16T11:48:03.280Z,31.70
2023-02-16T11:49:38.380Z,34.40
2023-02-16T11:51:15.269Z,33.13
2023-02-16T11:52:49.589Z,34.23
2023-02-16T11:54:38.514Z,34.60
2023-02-16T11:56:13.801Z,32.80
2023-02-16T11:57:49.008Z,31.17
2023-02-16T11:59:24.285Z,34.77
2023-02-16T12:01:01.934Z,34.63
2023-02-16T12:02:44.597Z,33.83
2023-02-16T12:04:23.414Z,34.97
2023-02-16T12:06:08.271Z,33.90
2023-02-16T12:07:44.187Z,34.27
2023-02-16T12:09:22.814Z,34.63
2023-02-16T12:11:03.396Z,34.53
2023-02-16T12:12:41.703Z,31.17
2023-02-16T12:14:27.331Z,33.73
2023-02-16T12:16:06.220Z,32.07
2023-02-16T12:17:54.936Z,34.07
2023-02-16T12:19:33.716Z,32.63
2023-02-16T12:21:11.540Z,37.67
2023-02-16T12:22:47.903Z,35.40
2023-02-16T12:24:29.911Z,37.27
2023-02-16T12:26:11.409Z,36.53
2023-02-16T12:27:47.068Z,38.87
2023-02-16T12:29:34.836Z,35.60
2023-02-16T12:31:17.511Z,33.20
2023-02-16T12:32:57.792Z,35.60
2023-02-16T12:34:36.803Z,35.83
2023-02-16T12:36:17.235Z,37.30
2023-02-16T12:37:53.432Z,36.00
2023-02-16T12:39:31.969Z,37.80
2023-02-16T12:41:13.109Z,35.57
2023-02-16T12:42:57.164Z,37.47
2023-02-16T12:44:34.359Z,39.23
2023-02-16T12:46:13.369Z,36.70
2023-02-16T12:47:48.883Z,36.60
2023-02-16T12:49:24.527Z,39.97
2023-02-16T12:50:58.587Z,39.13
2023-02-16T12:52:37.296Z,36.33
2023-02-16T12:54:11.488Z,41.23
2023-02-16T12:55:48.099Z,41.90
2023-02-16T12:57:22.123Z,37.87
2023-02-16T12:58:58.983Z,37.57
2023-02-16T13:00:40.594Z,38.93
2023-02-16T13:02:16.985Z,38.03
2023-02-16T13:03:53.992Z,39.40
2023-02-16T13:05:29.875Z,36.73
2023-02-16T13:07:06.803Z,39.33
2023-02-16T13:08:43.156Z,41.00
2023-02-16T13:10:20.470Z,36.30
2023-02-16T13:11:57.236Z,42.10
2023-02-16T13:13:33.704Z,40.43
2023-02-16T13:15:12.358Z,40.13
2023-02-16T13:16:50.030Z,44.63
2023-02-16T13:18:24.552Z,39.90
2023-02-16T13:19:58.090Z,41.57
2023-02-16T13:23:44.052Z,39.90
2023-02-16T13:25:31.211Z,40.00
2023-02-16T13:27:12.019Z,38.33
2023-02-16T13:28:58.560Z,46.60
2023-02-16T13:30:50.047Z,39.20
2023-02-16T13:32:39.283Z,43.03
2023-02-16T13:34:25.044Z,40.13
2023-02-16T13:36:12.297Z,42.17
2023-02-16T13:38:03.449Z,39.50
2023-02-16T13:39:43.201Z,42.43
2023-02-16T13:41:31.501Z,40.47
2023-02-16T13:43:15.668Z,41.33
2023-02-16T13:44:50.837Z,42.10
2023-02-16T13:46:28.056Z,42.37
2023-02-16T13:48:01.949Z,42.47
2023-02-16T13:49:43.200Z,41.57
2023-02-16T13:51:18.252Z,39.17
2023-02-16T13:52:52.996Z,38.50
2023-02-16T13:54:30.171Z,41.97
2023-02-16T13:56:30.813Z,42.27
2023-02-16T13:58:08.727Z,40.23
2023-02-16T13:59:59.917Z,44.17
2023-02-16T14:01:41.920Z,41.23
2023-02-16T14:03:37.551Z,43.37
2023-02-16T14:05:13.291Z,39.77
2023-02-16T14:06:46.948Z,45.80
2023-02-16T14:08:24.617Z,42.43
2023-02-16T14:09:58.112Z,41.30
2023-02-16T14:11:52.932Z,43.40
2023-02-16T14:13:29.518Z,40.17
2023-02-16T14:15:05.279Z,40.27
2023-02-16T14:16:38.792Z,41.90
2023-02-16T14:18:22.352Z,42.30
2023-02-16T14:19:57.223Z,39.37
2023-02-16T14:21:37.759Z,41.37
2023-02-16T14:23:28.927Z,41.07
2023-02-16T14:25:03.726Z,40.30
2023-02-16T14:26:53.183Z,44.57
2023-02-16T14:28:53.622Z,41.20
2023-02-16T14:30:28.843Z,43.93
2023-02-16T14:32:05.391Z,40.17
2023-02-16T14:33:42.589Z,38.70
2023-02-16T14:35:20.622Z,41.50
2023-02-16T14:37:12.744Z,40.10
2023-02-16T14:38:49.240Z,43.80
2023-02-16T14:40:24.267Z,41.17
2023-02-16T14:42:08.082Z,42.67
2023-02-16T14:43:43.095Z,39.90
2023-02-16T14:45:22.949Z,43.00
2023-02-16T14:47:03.767Z,43.33
2023-02-16T14:48:48.774Z,43.87
2023-02-16T14:50:31.549Z,45.97
2023-02-16T14:52:37.084Z,46.23
2023-02-16T14:54:37.373Z,45.27
2023-02-16T14:56:34.657Z,45.10
2023-02-16T14:58:17.351Z,44.10
2023-02-16T14:59:54.302Z,46.90
2023-02-16T15:01:28.112Z,43.37
2023-02-16T15:03:03.850Z,42.47
2023-02-16T15:04:39.792Z,47.57
2023-02-16T15:06:19.174Z,48.03
2023-02-16T15:07:54.116Z,43.80
2023-02-16T15:09:31.165Z,45.93
2023-02-16T15:11:14.570Z,44.53
2023-02-16T15:12:49.068Z,45.27
2023-02-16T15:14:22.493Z,42.53
2023-02-16T15:15:57.907Z,48.23
2023-02-16T15:17:34.436Z,50.00
2023-02-16T15:19:11.937Z,46.07
2023-02-16T15:20:46.924Z,49.80
2023-02-16T15:22:22.128Z,49.87
2023-02-16T15:23:56.743Z,52.67
2023-02-16T15:25:33.872Z,53.93
2023-02-16T15:27:07.491Z,52.37
2023-02-16T15:28:42.104Z,52.10
2023-02-16T15:30:24.100Z,51.93
2023-02-16T15:32:00.180Z,47.40
2023-02-16T15:33:36.270Z,51.93
2023-02-16T15:35:13.978Z,48.47
2023-02-16T15:36:47.473Z,51.97
2023-02-16T15:38:22.752Z,55.97
2023-02-16T15:40:23.200Z,52.87
2023-02-16T15:41:53.288Z,51.23
2023-02-16T15:43:30.904Z,51.27
2023-02-16T15:45:19.470Z,53.63
2023-02-16T15:46:52.893Z,57.00
2023-02-16T15:48:29.319Z,53.33
2023-02-16T15:50:13.070Z,54.23
2023-02-16T15:51:47.009Z,50.90
2023-02-16T15:53:25.074Z,52.03
2023-02-16T15:54:58.635Z,57.33
2023-02-16T15:56:40.445Z,50.97
2023-02-16T15:58:16.404Z,51.37
2023-02-16T15:59:50.701Z,56.73
2023-02-16T16:01:31.510Z,55.47
2023-02-16T16:03:05.854Z,57.70
2023-02-16T16:04:41.849Z,55.03
2023-02-16T16:06:15.337Z,57.03
2023-02-16T16:07:48.857Z,55.43
2023-02-16T16:09:25.015Z,56.43
2023-02-16T16:10:58.769Z,53.83
2023-02-16T16:12:32.356Z,56.87
2023-02-16T16:14:07.908Z,57.13
2023-02-16T16:15:42.571Z,56.10
2023-02-16T16:17:17.088Z,59.43
2023-02-16T16:18:51.462Z,55.87
2023-02-16T16:20:29.431Z,57.23
2023-02-16T16:22:04.235Z,60.83
2023-02-16T16:23:37.711Z,58.23
2023-02-16T16:25:32.614Z,57.90
2023-02-16T16:27:07.705Z,57.53
2023-02-16T16:28:41.203Z,57.20
2023-02-16T16:30:27.512Z,61.53
2023-02-16T16:32:01.415Z,61.10
2023-02-16T16:33:49.762Z,63.23
2023-02-16T16:35:23.381Z,59.37
2023-02-16T16:36:59.952Z,57.33
2023-02-16T16:38:36.023Z,60.50
2023-02-16T16:40:21.915Z,61.20
2023-02-16T16:42:13.053Z,60.17
2023-02-16T16:43:54.373Z,68.47
2023-02-16T16:45:38.901Z,61.20
2023-02-16T16:47:22.239Z,64.90
2023-02-16T16:48:57.316Z,63.33
2023-02-16T16:50:32.621Z,65.87
2023-02-16T16:52:10.108Z,68.40
2023-02-16T16:53:46.157Z,61.77
2023-02-16T16:55:24.831Z,66.97
2023-02-16T16:56:58.530Z,71.17
2023-02-16T16:58:31.972Z,64.63
2023-02-16T17:00:05.639Z,70.10
2023-02-16T17:01:41.532Z,63.37
2023-02-16T17:03:16.369Z,69.40
2023-02-16T17:04:50.170Z,71.03
2023-02-16T17:06:23.647Z,69.10
2023-02-16T17:07:57.136Z,68.30
2023-02-16T17:09:30.575Z,70.37
2023-02-16T17:11:04.855Z,66.53
2023-02-16T17:12:39.317Z,74.03
2023-02-16T17:14:17.092Z,76.33
2023-02-16T17:15:52.963Z,72.80
2023-02-16T17:17:27.776Z,72.03
2023-02-16T17:19:01.250Z,70.10
2023-02-16T17:20:35.313Z,70.13
2023-02-16T17:22:13.186Z,74.27
2023-02-16T17:23:52.840Z,77.23
2023-02-16T17:25:26.821Z,67.93
2023-02-16T17:27:00.286Z,67.17
2023-02-16T17:28:36.680Z,73.57
2023-02-16T17:30:11.072Z,76.03
2023-02-16T17:31:44.577Z,73.37
2023-02-16T17:33:20.137Z,76.90
2023-02-16T17:34:53.708Z,71.23
2023-02-16T17:36:28.002Z,74.97
2023-02-16T17:38:01.586Z,75.93
2023-02-16T17:39:35.199Z,77.83
2023-02-16T17:41:08.711Z,77.17
2023-02-16T17:42:42.235Z,79.17
2023-02-16T17:44:15.581Z,74.67
2023-02-16T17:45:49.783Z,67.57
2023-02-16T17:47:23.404Z,77.13
2023-02-16T17:48:58.142Z,75.10
2023-02-16T17:50:32.945Z,77.63
2023-02-16T17:52:07.533Z,77.73
2023-02-16T17:53:41.898Z,76.00
2023-02-16T17:55:15.260Z,79.03
2023-02-16T17:56:48.830Z,72.80
2023-02-16T17:58:22.473Z,75.90
2023-02-16T17:59:55.988Z,76.87
2023-02-16T18:01:29.408Z,72.83
2023-02-16T18:03:03.115Z,76.00
2023-02-16T18:04:40.911Z,74.87
2023-02-16T18:06:14.828Z,74.33
2023-02-16T18:07:48.200Z,74.40
2023-02-16T18:09:24.486Z,74.33
2023-02-16T18:11:02.050Z,79.00
2023-02-16T18:12:35.698Z,75.03
2023-02-16T18:14:09.533Z,80.97
2023-02-16T18:15:45.252Z,72.20
2023-02-16T18:17:18.896Z,76.17
2023-02-16T18:18:52.507Z,74.50
2023-02-16T18:20:27.699Z,73.27
2023-02-16T18:22:01.258Z,76.07
2023-02-16T18:23:34.824Z,74.10
2023-02-16T18:25:08.440Z,72.60
2023-02-16T18:26:41.832Z,75.20
2023-02-16T18:28:18.263Z,73.00
2023-02-16T18:29:51.818Z,70.67
2023-02-16T18:31:25.277Z,73.20
2023-02-16T18:32:58.678Z,75.33
2023-02-16T18:34:33.355Z,75.27
2023-02-16T18:36:08.590Z,69.63
2023-02-16T18:37:42.760Z,72.73
2023-02-16T18:39:16.123Z,78.70
2023-02-16T18:40:49.540Z,73.83
2023-02-16T18:42:23.025Z,70.50
2023-02-16T18:43:56.888Z,72.17
2023-02-16T18:45:30.341Z,76.50
2023-02-16T18:47:03.818Z,72.93
2023-02-16T18:48:37.308Z,74.73
2023-02-16T18:50:11.723Z,79.50
2023-02-16T18:51:46.458Z,78.30
2023-02-16T18:53:19.930Z,73.17
2023-02-16T18:54:53.700Z,69.13
2023-02-16T18:56:27.555Z,76.23
2023-02-16T18:58:01.110Z,70.77
2023-02-16T18:59:35.166Z,67.40
2023-02-16T19:01:15.403Z,69.23
2023-02-16T19:02:49.884Z,81.30
2023-02-16T19:04:23.274Z,80.50
2023-02-16T19:05:56.753Z,81.13
2023-02-16T19:07:31.492Z,72.90
2023-02-16T19:09:05.241Z,71.50
2023-02-16T19:10:38.830Z,74.33
2023-02-16T19:12:12.257Z,71.17
2023-02-16T19:13:45.938Z,66.80
2023-02-16T19:15:19.644Z,65.80
2023-02-16T19:16:53.062Z,75.57
2023-02-16T19:18:29.150Z,71.33
2023-02-16T19:20:02.525Z,72.90
2023-02-16T19:21:36.039Z,70.20
2023-02-16T19:23:11.081Z,70.77
2023-02-16T19:24:44.636Z,70.93
2023-02-16T19:26:18.919Z,82.43
2023-02-16T19:27:52.542Z,75.03
2023-02-16T19:29:26.065Z,66.70
2023-02-16T19:31:02.386Z,68.93
2023-02-16T19:32:35.815Z,66.87
2023-02-16T19:34:09.224Z,61.80
2023-02-16T19:35:43.129Z,68.90
2023-02-16T19:37:16.698Z,67.40
2023-02-16T19:38:51.503Z,72.90
2023-02-16T19:40:25.662Z,66.93
2023-02-16T19:41:59.895Z,69.13
2023-02-16T19:43:33.461Z,72.27
2023-02-16T19:45:07.276Z,70.00
2023-02-16T19:46:41.464Z,70.87
2023-02-16T19:48:14.929Z,71.37
2023-02-16T19:49:48.645Z,65.20
2023-02-16T19:51:22.008Z,66.60
2023-02-16T19:52:55.876Z,73.50
2023-02-16T19:54:32.477Z,76.23
2023-02-16T19:56:06.692Z,73.10
2023-02-16T19:57:40.255Z,79.50
2023-02-16T19:59:15.442Z,68.73
2023-02-16T20:00:48.950Z,69.27
2023-02-16T20:02:22.768Z,67.50
2023-02-16T20:03:57.515Z,66.13
2023-02-16T20:05:30.928Z,63.73
2023-02-16T20:07:05.068Z,64.80
2023-02-16T20:08:38.674Z,65.53
2023-02-16T20:10:13.522Z,60.97
2023-02-16T20:11:47.095Z,62.10
2023-02-16T20:13:20.476Z,64.80
2023-02-16T20:14:54.068Z,64.97
2023-02-16T20:16:27.909Z,65.73
2023-02-16T20:18:01.560Z,66.90
2023-02-16T20:19:34.987Z,61.13
2023-02-16T20:21:09.416Z,64.47
2023-02-16T20:22:42.869Z,64.37
2023-02-16T20:24:16.963Z,65.20
2023-02-16T20:25:51.829Z,68.67
2023-02-16T20:27:25.315Z,60.43
2023-02-16T20:28:58.828Z,57.17
2023-02-16T20:30:32.210Z,63.20
2023-02-16T20:32:06.327Z,65.80
2023-02-16T20:33:39.823Z,60.57
2023-02-16T20:35:13.201Z,65.20
2023-02-16T20:36:46.631Z,64.90
2023-02-16T20:38:20.063Z,62.13
2023-02-16T20:39:53.484Z,61.17
2023-02-16T20:41:28.250Z,58.93
2023-02-16T20:43:01.657Z,61.83
2023-02-16T20:44:35.018Z,60.03